Meath Environmental Platform

Observations for Trim Market St

Time AQI Temp °C Hum % Pres Pa CO μg/m³ H₂S μg/m³ NO μg/m³ NO₂ μg/m³ O₃ μg/m³ SO₂ μg/m³ PM1 μg/m³ PM2.5 μg/m³ PM10 μg/m³
Thursday 16 July 2026
05:34 1 15.6 77 31,144 0.2 0 0 1.37 8.36 0 5.7 8.42 12.79
05:32 1 15.6 77 30,741 0.19 0 0 2.07 9.57 0 7.13 9.38 14.54
05:31 1 15.6 77 30,476 0.23 0 0 2.86 8.49 0 5.7 8.42 12.78
05:30 1 15.6 77 30,078 0.51 0 0 1.56 11.4 0 9.26 12.7 18.62
05:12 1 15.7 78 24,277 0.19 0 0 5.58 14.46 0 9.26 12.66 17.98
05:11 1 15.7 78 24,660 0.19 0 0 2.99 13.66 0 8.55 9.34 14.5
05:10 1 15.8 78 24,893 0.2 0 0 3.76 13.59 0 7.84 10.29 14.5
05:09 1 15.8 78 25,165 0.18 0 0 3.16 14.28 0 8.55 11.24 15.67
05:07 1 15.8 78 25,719 0.18 0 0 4.67 14.76 0 6.41 9.35 13.35
05:06 1 15.8 78 26,036 0.18 0 0 2.87 17.26 0 7.84 9.35 15.09
05:05 1 15.8 78 26,273 0.18 0 0 6.87 10.32 0 9.26 11.73 16.84
05:03 1 15.8 78 26,475 0.18 0 0 6.37 12.92 0 6.41 9.35 13.35
05:02 1 15.8 78 26,431 0.18 0 0 2.47 13.73 0 8.55 10.3 15.67
05:01 1 15.8 78 26,256 0.18 0 0 5.37 7.08 0 7.84 10.3 14.51
04:55 1 15.9 78 24,471 0.17 0 0 2.43 13.31 0 7.13 9.34 13.92
04:47 1 16 77 27,189 0.17 0 0 6.94 13.17 0 8.55 11.26 15.69
04:46 1 16 77 27,553 0.18 0 0 2.54 14.53 0 8.55 9.84 14.53
04:44 1 16 77 28,024 0.17 0 0 2.15 22.36 0 9.98 13.17 18.03
04:42 1 16 77 28,142 0.17 0 0 2.56 16.06 0 7.84 11.28 17.46
04:41 1 16 77 28,295 0.17 0 0.79 3.16 15.37 0 9.98 12.71 17.46